createdAt,value
2023-02-21T00:00:42.841Z,78.009033
2023-02-21T00:01:52.503Z,78.143311
2023-02-21T00:03:00.193Z,78.143311
2023-02-21T00:04:08.843Z,78.143311
2023-02-21T00:05:18.537Z,78.24707
2023-02-21T00:06:28.185Z,78.24707
2023-02-21T00:07:36.801Z,78.143311
2023-02-21T00:08:45.474Z,78.045654
2023-02-21T00:09:55.144Z,78.045654
2023-02-21T00:11:04.789Z,77.941895
2023-02-21T00:12:13.458Z,77.941895
2023-02-21T00:13:23.150Z,78.045654
2023-02-21T00:14:32.796Z,77.838135
2023-02-21T00:15:41.415Z,77.838135
2023-02-21T00:16:50.084Z,77.941895
2023-02-21T00:17:58.691Z,77.941895
2023-02-21T00:19:07.424Z,78.045654
2023-02-21T00:20:18.429Z,78.24707
2023-02-21T00:21:25.746Z,78.045654
2023-02-21T00:22:33.351Z,78.045654
2023-02-21T00:23:43.016Z,77.941895
2023-02-21T00:24:52.733Z,77.838135
2023-02-21T00:26:01.380Z,77.734375
2023-02-21T00:27:11.033Z,77.734375
2023-02-21T00:28:20.706Z,77.838135
2023-02-21T00:29:30.359Z,77.838135
2023-02-21T00:30:38.129Z,77.838135
2023-02-21T00:31:46.648Z,77.941895
2023-02-21T00:32:56.397Z,78.045654
2023-02-21T00:34:04.983Z,78.179932
2023-02-21T00:35:14.632Z,78.387451
2023-02-21T00:36:23.273Z,78.491211
2023-02-21T00:37:31.944Z,78.594971
2023-02-21T00:38:41.600Z,78.80249
2023-02-21T00:39:50.245Z,78.90625
2023-02-21T00:40:57.880Z,79.01001
2023-02-21T00:42:06.527Z,79.25415
2023-02-21T00:43:15.165Z,79.150391
2023-02-21T00:44:24.838Z,79.150391
2023-02-21T00:45:33.474Z,79.25415
2023-02-21T00:46:42.129Z,79.35791
2023-02-21T00:47:51.767Z,79.35791
2023-02-21T00:49:00.492Z,79.559326
2023-02-21T00:50:10.161Z,79.455566
2023-02-21T00:51:19.791Z,79.455566
2023-02-21T00:52:29.447Z,79.663086
2023-02-21T00:53:39.161Z,79.699707
2023-02-21T00:54:50.520Z,80.114746
2023-02-21T00:55:57.474Z,80.010986
2023-02-21T00:57:07.123Z,80.322266
2023-02-21T00:58:16.774Z,80.358887
2023-02-21T00:59:24.437Z,80.462646
2023-02-21T01:00:33.088Z,81.085205
2023-02-21T01:01:42.806Z,81.390381
2023-02-21T01:02:52.397Z,81.494141
2023-02-21T01:04:02.163Z,81.433105
2023-02-21T01:05:11.744Z,81.433105
2023-02-21T01:06:21.397Z,81.945801
2023-02-21T01:07:29.031Z,82.25708
2023-02-21T01:08:38.694Z,82.568359
2023-02-21T01:09:48.392Z,82.8125
2023-02-21T01:10:56.019Z,82.983398
2023-02-21T01:12:05.669Z,82.879639
2023-02-21T01:13:14.316Z,83.294678
2023-02-21T01:14:23.977Z,83.190918
2023-02-21T01:15:33.671Z,83.123779
2023-02-21T01:16:42.306Z,83.227539
2023-02-21T01:17:51.948Z,83.227539
2023-02-21T01:19:00.622Z,83.331299
2023-02-21T01:20:09.264Z,83.331299
2023-02-21T01:21:18.922Z,83.294678
2023-02-21T01:22:28.564Z,83.294678
2023-02-21T01:23:38.229Z,83.190918
2023-02-21T01:24:46.911Z,83.087158
2023-02-21T01:25:55.567Z,82.879639
2023-02-21T01:27:05.187Z,82.775879
2023-02-21T01:28:14.851Z,82.672119
2023-02-21T01:29:23.515Z,82.427979
2023-02-21T01:30:33.183Z,82.220459
2023-02-21T01:31:41.839Z,81.80542
2023-02-21T01:32:50.485Z,81.35376
2023-02-21T01:33:59.137Z,81.14624
2023-02-21T01:35:08.810Z,81.14624
2023-02-21T01:36:18.468Z,81.35376
2023-02-21T01:37:26.098Z,81.45752
2023-02-21T01:38:34.743Z,81.35376
2023-02-21T01:39:44.428Z,81.35376
2023-02-21T01:40:53.065Z,81.35376
2023-02-21T01:42:01.737Z,81.35376
2023-02-21T01:43:11.382Z,81.35376
2023-02-21T01:44:21.079Z,81.25
2023-02-21T01:45:30.714Z,80.944824
2023-02-21T01:46:38.349Z,81.048584
2023-02-21T01:47:45.999Z,81.048584
2023-02-21T01:48:55.633Z,81.14624
2023-02-21T01:50:04.320Z,81.25
2023-02-21T01:51:13.297Z,81.25
2023-02-21T01:52:21.636Z,81.390381
2023-02-21T01:53:31.282Z,81.494141
2023-02-21T01:54:40.943Z,81.70166
2023-02-21T01:55:48.576Z,81.494141
2023-02-21T01:56:57.230Z,81.80542
2023-02-21T01:58:06.889Z,82.15332
2023-02-21T01:59:16.511Z,82.672119
2023-02-21T02:00:25.182Z,82.775879
2023-02-21T02:01:34.856Z,82.672119
2023-02-21T02:02:43.469Z,82.427979
2023-02-21T02:03:53.120Z,82.220459
2023-02-21T02:05:00.794Z,82.116699
2023-02-21T02:06:08.427Z,82.049561
2023-02-21T02:07:18.085Z,82.568359
2023-02-21T02:08:26.733Z,83.087158
2023-02-21T02:09:35.384Z,83.087158
2023-02-21T02:10:44.055Z,83.087158
2023-02-21T02:11:53.695Z,83.331299
2023-02-21T02:13:03.338Z,83.435059
2023-02-21T02:14:11.000Z,83.435059
2023-02-21T02:15:18.672Z,83.435059
2023-02-21T02:16:28.319Z,83.886719
2023-02-21T02:17:37.022Z,84.094238
2023-02-21T02:18:45.697Z,84.301758
2023-02-21T02:19:55.343Z,84.857178
2023-02-21T02:21:04.985Z,85.272217
2023-02-21T02:22:14.648Z,85.339355
2023-02-21T02:23:23.301Z,85.235596
2023-02-21T02:24:30.951Z,85.235596
2023-02-21T02:25:40.643Z,85.235596
2023-02-21T02:26:50.312Z,84.924316
2023-02-21T02:27:58.942Z,85.028076
2023-02-21T02:29:07.595Z,85.028076
2023-02-21T02:30:16.309Z,85.235596
2023-02-21T02:31:26.017Z,85.375977
2023-02-21T02:32:34.540Z,85.375977
2023-02-21T02:33:43.190Z,85.479736
2023-02-21T02:34:52.898Z,85.791016
2023-02-21T02:36:02.540Z,85.479736
2023-02-21T02:37:12.194Z,85.522461
2023-02-21T02:38:20.859Z,85.72998
2023-02-21T02:39:29.552Z,85.72998
2023-02-21T02:40:39.229Z,86.077881
2023-02-21T02:41:47.881Z,86.2854
2023-02-21T02:42:55.518Z,86.2854
2023-02-21T02:44:05.163Z,86.535645
2023-02-21T02:45:13.831Z,87.158203
2023-02-21T02:46:23.626Z,87.780762
2023-02-21T02:47:33.170Z,88.299561
2023-02-21T02:48:41.807Z,88.61084
2023-02-21T02:49:51.459Z,88.464355
2023-02-21T02:51:00.119Z,88.40332
2023-02-21T02:52:08.756Z,88.568115
2023-02-21T02:53:18.405Z,88.671875
2023-02-21T02:54:27.034Z,87.945557
2023-02-21T02:55:35.721Z,87.738037
2023-02-21T02:56:45.381Z,87.530518
2023-02-21T02:57:55.040Z,87.322998
2023-02-21T02:59:04.682Z,87.011719
2023-02-21T03:00:13.352Z,86.950684
2023-02-21T03:01:23.097Z,87.158203
2023-02-21T03:02:32.746Z,87.261963
2023-02-21T03:03:42.398Z,87.402344
2023-02-21T03:04:52.011Z,87.402344
2023-02-21T03:06:00.683Z,87.548828
2023-02-21T03:07:10.318Z,87.756348
2023-02-21T03:08:19.977Z,88.208008
2023-02-21T03:09:29.638Z,88.623047
2023-02-21T03:10:40.300Z,89.147949
2023-02-21T03:11:47.940Z,89.49585
2023-02-21T03:12:56.589Z,89.813232
2023-02-21T03:14:07.222Z,90.124512
2023-02-21T03:15:15.867Z,90.539551
2023-02-21T03:16:25.587Z,90.893555
2023-02-21T03:17:35.169Z,90.893555
2023-02-21T03:18:43.835Z,90.789795
2023-02-21T03:19:53.459Z,90.997314
2023-02-21T03:21:02.127Z,91.412354
2023-02-21T03:22:10.771Z,92.034912
2023-02-21T03:23:20.413Z,91.827393
2023-02-21T03:24:29.052Z,91.723633
2023-02-21T03:25:37.693Z,92.034912
2023-02-21T03:26:46.417Z,92.138672
2023-02-21T03:27:55.043Z,92.449951
2023-02-21T03:29:03.696Z,92.449951
2023-02-21T03:30:11.350Z,92.449951
2023-02-21T03:31:21.103Z,92.96875
2023-02-21T03:32:30.732Z,93.389893
2023-02-21T03:33:39.352Z,93.389893
2023-02-21T03:34:49.023Z,93.182373
2023-02-21T03:35:58.692Z,92.96875
2023-02-21T03:37:07.322Z,93.286133
2023-02-21T03:38:17.974Z,93.347168
2023-02-21T03:39:26.632Z,93.243408
2023-02-21T03:40:35.253Z,93.139648
2023-02-21T03:41:44.924Z,93.243408
2023-02-21T03:42:54.577Z,93.029785
2023-02-21T03:44:03.210Z,92.883301
2023-02-21T03:45:11.860Z,92.883301
2023-02-21T03:46:21.536Z,92.987061
2023-02-21T03:47:31.174Z,92.883301
2023-02-21T03:48:38.827Z,92.675781
2023-02-21T03:49:47.494Z,92.779541
2023-02-21T03:50:57.228Z,92.779541
2023-02-21T03:52:05.862Z,92.572021
2023-02-21T03:53:14.512Z,92.572021
2023-02-21T03:54:24.200Z,92.468262
2023-02-21T03:55:33.840Z,92.260742
2023-02-21T03:56:43.500Z,92.364502
2023-02-21T03:57:51.141Z,92.364502
2023-02-21T03:59:00.824Z,92.425537
2023-02-21T04:00:10.441Z,92.321777
2023-02-21T04:01:20.187Z,92.425537
2023-02-21T04:02:28.761Z,92.321777
2023-02-21T04:03:37.400Z,92.010498
2023-02-21T04:04:46.063Z,92.010498
2023-02-21T04:05:55.689Z,92.010498
2023-02-21T04:07:05.391Z,91.760254
2023-02-21T04:08:14.008Z,91.656494
2023-02-21T04:09:23.656Z,91.345215
2023-02-21T04:10:35.875Z,91.137695
2023-02-21T04:11:42.936Z,90.997314
2023-02-21T04:12:51.571Z,90.686035
2023-02-21T04:14:00.231Z,90.582275
2023-02-21T04:15:09.877Z,90.332031
2023-02-21T04:16:17.579Z,89.813232
2023-02-21T04:17:26.203Z,89.501953
2023-02-21T04:18:37.726Z,88.94043
2023-02-21T04:19:44.526Z,88.525391
2023-02-21T04:20:55.195Z,88.28125
2023-02-21T04:22:04.952Z,87.762451
2023-02-21T04:23:14.622Z,87.554932
2023-02-21T04:24:24.247Z,87.347412
2023-02-21T04:25:32.911Z,87.243652
2023-02-21T04:26:41.586Z,87.097168
2023-02-21T04:27:51.227Z,86.785889
2023-02-21T04:28:59.875Z,86.682129
2023-02-21T04:30:09.593Z,86.37085
2023-02-21T04:31:18.440Z,86.26709
2023-02-21T04:32:27.040Z,86.065674
2023-02-21T04:33:36.572Z,85.858154
2023-02-21T04:34:45.218Z,85.71167
2023-02-21T04:35:53.867Z,85.60791
2023-02-21T04:37:03.553Z,85.60791
2023-02-21T04:38:13.187Z,85.50415
2023-02-21T04:39:21.856Z,85.400391
2023-02-21T04:40:31.498Z,85.296631
2023-02-21T04:41:41.148Z,85.192871
2023-02-21T04:42:50.836Z,85.192871
2023-02-21T04:43:58.477Z,85.192871
2023-02-21T04:45:08.137Z,85.192871
2023-02-21T04:46:17.797Z,85.089111
2023-02-21T04:47:26.453Z,85.089111
2023-02-21T04:48:35.140Z,84.985352
2023-02-21T04:49:43.773Z,84.985352
2023-02-21T04:50:54.760Z,84.881592
2023-02-21T04:52:04.086Z,84.783936
2023-02-21T04:53:12.730Z,84.680176
2023-02-21T04:54:21.376Z,84.576416
2023-02-21T04:55:31.057Z,84.576416
2023-02-21T04:56:39.823Z,84.326172
2023-02-21T04:57:47.338Z,84.222412
2023-02-21T04:58:56.991Z,84.118652
2023-02-21T05:00:06.650Z,84.118652
2023-02-21T05:01:16.645Z,84.161377
2023-02-21T05:02:24.950Z,84.265137
2023-02-21T05:03:33.595Z,84.368896
2023-02-21T05:04:43.332Z,84.265137
2023-02-21T05:05:52.956Z,84.118652
2023-02-21T05:07:02.604Z,84.014893
2023-02-21T05:08:11.289Z,83.911133
2023-02-21T05:09:19.948Z,83.502197
2023-02-21T05:10:43.707Z,83.398438
2023-02-21T05:11:39.309Z,83.154297
2023-02-21T05:12:48.951Z,83.050537
2023-02-21T05:13:56.596Z,82.946777
2023-02-21T05:15:05.289Z,82.843018
2023-02-21T05:16:14.907Z,82.635498
2023-02-21T05:17:23.566Z,82.531738
2023-02-21T05:18:32.206Z,82.287598
2023-02-21T05:19:40.884Z,82.080078
2023-02-21T05:20:50.617Z,81.976318
2023-02-21T05:22:00.188Z,81.768799
2023-02-21T05:23:13.266Z,81.768799
2023-02-21T05:24:17.487Z,81.665039
2023-02-21T05:25:26.123Z,81.665039
2023-02-21T05:26:34.757Z,81.561279
2023-02-21T05:27:43.448Z,81.561279
2023-02-21T05:28:53.061Z,81.80542
2023-02-21T05:30:01.751Z,81.80542
2023-02-21T05:31:11.434Z,81.70166
2023-02-21T05:32:19.095Z,81.70166
2023-02-21T05:33:26.735Z,81.80542
2023-02-21T05:34:36.388Z,81.80542
2023-02-21T05:35:46.060Z,82.012939
2023-02-21T05:36:53.675Z,82.15332
2023-02-21T05:38:03.361Z,82.25708
2023-02-21T05:39:12.037Z,82.36084
2023-02-21T05:40:21.641Z,82.568359
2023-02-21T05:41:29.288Z,82.672119
2023-02-21T05:42:38.984Z,82.8125
2023-02-21T05:43:48.663Z,82.91626
2023-02-21T05:44:57.279Z,83.02002
2023-02-21T05:46:06.034Z,83.123779
2023-02-21T05:47:14.668Z,83.123779
2023-02-21T05:48:24.342Z,83.123779
2023-02-21T05:49:33.978Z,83.123779
2023-02-21T05:50:41.654Z,83.123779
2023-02-21T05:51:51.279Z,83.02002
2023-02-21T05:53:00.977Z,83.123779
2023-02-21T05:54:10.626Z,83.02002
2023-02-21T05:55:19.309Z,83.02002
2023-02-21T05:56:27.994Z,82.91626
2023-02-21T05:57:37.635Z,82.91626
2023-02-21T05:58:47.305Z,82.91626
2023-02-21T05:59:57.036Z,82.8125
2023-02-21T06:01:14.164Z,82.70874
2023-02-21T06:02:23.387Z,82.70874
2023-02-21T06:03:32.047Z,82.60498
2023-02-21T06:04:40.664Z,82.60498
2023-02-21T06:05:50.331Z,82.501221
2023-02-21T06:06:59.978Z,82.501221
2023-02-21T06:08:08.345Z,82.397461
2023-02-21T06:09:17.291Z,82.293701
2023-02-21T06:10:25.945Z,82.189941
2023-02-21T06:11:35.647Z,82.189941
2023-02-21T06:12:44.323Z,82.189941
2023-02-21T06:13:54.007Z,81.988525
2023-02-21T06:15:03.697Z,81.884766
2023-02-21T06:16:13.421Z,81.988525
2023-02-21T06:17:21.028Z,81.884766
2023-02-21T06:18:30.723Z,81.884766
2023-02-21T06:19:40.364Z,81.884766
2023-02-21T06:20:50.057Z,81.781006
2023-02-21T06:21:58.669Z,81.573486
2023-02-21T06:23:07.331Z,81.573486
2023-02-21T06:24:17.067Z,81.433105
2023-02-21T06:25:25.706Z,81.365967
2023-02-21T06:26:34.394Z,81.365967
2023-02-21T06:27:44.044Z,81.262207
2023-02-21T06:28:53.709Z,81.054688
2023-02-21T06:30:03.495Z,81.054688
2023-02-21T06:31:13.306Z,80.847168
2023-02-21T06:32:21.686Z,80.743408
2023-02-21T06:33:31.360Z,80.914307
2023-02-21T06:34:40.020Z,80.706787
2023-02-21T06:35:48.669Z,80.706787
2023-02-21T06:36:58.363Z,80.706787
2023-02-21T06:38:07.021Z,81.018066
2023-02-21T06:39:15.696Z,80.603027
2023-02-21T06:40:24.350Z,80.499268
2023-02-21T06:41:34.016Z,80.395508
2023-02-21T06:42:43.656Z,80.395508
2023-02-21T06:43:51.332Z,80.395508
2023-02-21T06:44:59.985Z,80.291748
2023-02-21T06:46:09.727Z,80.187988
2023-02-21T06:47:19.328Z,80.084229
2023-02-21T06:48:27.956Z,79.980469
2023-02-21T06:49:36.655Z,80.255127
2023-02-21T06:50:45.313Z,79.943848
2023-02-21T06:51:54.987Z,80.255127
2023-02-21T06:53:03.740Z,80.358887
2023-02-21T06:54:12.415Z,80.358887
2023-02-21T06:55:24.361Z,80.322266
2023-02-21T06:56:31.779Z,80.322266
2023-02-21T06:57:41.438Z,79.907227
2023-02-21T06:58:49.136Z,79.663086
2023-02-21T06:59:57.792Z,78.942871
2023-02-21T07:01:07.465Z,78.491211
2023-02-21T07:02:16.129Z,78.076172
2023-02-21T07:03:23.851Z,78.143311
2023-02-21T07:04:33.533Z,77.941895
2023-02-21T07:05:42.181Z,76.806641
2023-02-21T07:06:52.832Z,76.5625
2023-02-21T07:08:01.634Z,76.66626
2023-02-21T07:09:11.293Z,76.2146
2023-02-21T07:10:20.974Z,75.390625
2023-02-21T07:11:30.624Z,75.390625
2023-02-21T07:12:40.276Z,75.769043
2023-02-21T07:13:48.935Z,75.665283
2023-02-21T07:14:56.634Z,74.603271
2023-02-21T07:16:06.326Z,73.980713
2023-02-21T07:17:14.952Z,74.255371
2023-02-21T07:18:24.607Z,73.913574
2023-02-21T07:19:33.352Z,73.571777
2023-02-21T07:20:42.997Z,72.540283
2023-02-21T07:21:52.661Z,72.406006
2023-02-21T07:23:01.337Z,72.094727
2023-02-21T07:24:09.054Z,71.343994
2023-02-21T07:25:18.745Z,71.240234
2023-02-21T07:26:28.452Z,70.898438
2023-02-21T07:27:37.161Z,70.385742
2023-02-21T07:28:46.855Z,70.178223
2023-02-21T07:29:56.509Z,69.769287
2023-02-21T07:31:06.230Z,70.281982
2023-02-21T07:32:14.821Z,70.52002
2023-02-21T07:33:23.483Z,70.52002
2023-02-21T07:34:33.167Z,71.173096
2023-02-21T07:35:42.864Z,71.447754
2023-02-21T07:36:51.557Z,70.831299
2023-02-21T07:38:01.217Z,70.697021
2023-02-21T07:39:10.875Z,70.593262
2023-02-21T07:40:19.575Z,69.805908
2023-02-21T07:41:27.217Z,69.091797
2023-02-21T07:42:34.866Z,68.884277
2023-02-21T07:43:44.541Z,68.988037
2023-02-21T07:44:53.204Z,68.64624
2023-02-21T07:46:01.921Z,69.158936
2023-02-21T07:47:10.515Z,68.304443
2023-02-21T07:48:20.177Z,66.8396
2023-02-21T07:49:29.852Z,67.279053
2023-02-21T07:50:37.530Z,66.973877
2023-02-21T07:51:44.196Z,67.181396
2023-02-21T07:52:53.837Z,67.724609
2023-02-21T07:54:02.508Z,67.926025
2023-02-21T07:55:11.274Z,68.237305
2023-02-21T07:56:20.072Z,68.133545
2023-02-21T07:57:28.728Z,68.133545
2023-02-21T07:58:38.397Z,67.590332
2023-02-21T07:59:48.080Z,67.382812
2023-02-21T08:00:56.744Z,67.96875
2023-02-21T08:02:06.430Z,66.088867
2023-02-21T08:03:15.081Z,65.960693
2023-02-21T08:04:23.758Z,65.075684
2023-02-21T08:05:32.404Z,64.63623
2023-02-21T08:06:41.081Z,64.025879
2023-02-21T08:07:50.804Z,63.659668
2023-02-21T08:08:59.437Z,62.536621
2023-02-21T08:10:08.119Z,61.486816
2023-02-21T08:11:17.794Z,62.200928
2023-02-21T08:12:26.449Z,62.200928
2023-02-21T08:13:35.137Z,61.968994
2023-02-21T08:14:44.790Z,61.224365
2023-02-21T08:15:53.484Z,61.090088
2023-02-21T08:17:03.125Z,60.656738
2023-02-21T08:18:11.795Z,60.552979
2023-02-21T08:19:19.461Z,59.0271
2023-02-21T08:20:29.159Z,59.460449
2023-02-21T08:21:37.830Z,59.661865
2023-02-21T08:22:48.497Z,59.533691
2023-02-21T08:23:58.194Z,59.356689
2023-02-21T08:25:06.844Z,59.155273
2023-02-21T08:26:16.493Z,59.564209
2023-02-21T08:27:24.150Z,59.387207
2023-02-21T08:28:31.804Z,59.588623
2023-02-21T08:29:41.476Z,60.510254
2023-02-21T08:30:50.147Z,59.796143
2023-02-21T08:31:59.866Z,60.510254
2023-02-21T08:33:08.518Z,59.893799
2023-02-21T08:34:18.169Z,60.583496
2023-02-21T08:35:28.831Z,59.637451
2023-02-21T08:36:35.479Z,58.666992
2023-02-21T08:37:43.134Z,58.026123
2023-02-21T08:38:52.796Z,57.592773
2023-02-21T08:40:02.491Z,57.159424
2023-02-21T08:41:11.138Z,56.82373
2023-02-21T08:42:19.817Z,56.799316
2023-02-21T08:43:28.490Z,55.224609
2023-02-21T08:44:38.146Z,55.322266
2023-02-21T08:45:45.833Z,55.401611
2023-02-21T08:46:55.579Z,54.589844
2023-02-21T08:48:05.181Z,54.156494
2023-02-21T08:49:13.845Z,53.118896
2023-02-21T08:50:23.553Z,53.216553
2023-02-21T08:51:32.200Z,53.192139
2023-02-21T08:52:40.847Z,52.355957
2023-02-21T08:53:50.535Z,52.435303
2023-02-21T08:54:58.218Z,51.324463
2023-02-21T08:56:05.913Z,51.855469
2023-02-21T08:57:15.567Z,52.435303
2023-02-21T08:58:24.267Z,51.928711
2023-02-21T08:59:31.902Z,52.331543
2023-02-21T09:00:40.673Z,51.422119
2023-02-21T09:01:48.352Z,51.501465
2023-02-21T09:02:57.012Z,51.220703
2023-02-21T09:04:05.699Z,51.855469
2023-02-21T09:05:15.391Z,52.355957
2023-02-21T09:06:23.045Z,52.764893
2023-02-21T09:07:31.708Z,52.435303
2023-02-21T09:08:40.368Z,51.702881
2023-02-21T09:09:50.041Z,51.348877
2023-02-21T09:10:59.797Z,50.842285
2023-02-21T09:12:08.469Z,50.415039
2023-02-21T09:13:18.109Z,51.025391
2023-02-21T09:14:27.785Z,50.091553
2023-02-21T09:15:35.470Z,49.584961
2023-02-21T09:16:43.188Z,49.261475
2023-02-21T09:17:52.835Z,49.462891
2023-02-21T09:19:01.541Z,49.359131
2023-02-21T09:20:10.198Z,49.536133
2023-02-21T09:21:18.892Z,49.383545
2023-02-21T09:22:28.547Z,50.292969
2023-02-21T09:23:38.217Z,49.865723
2023-02-21T09:24:45.894Z,49.383545
2023-02-21T09:25:54.571Z,50.189209
2023-02-21T09:27:05.227Z,49.865723
2023-02-21T09:28:14.915Z,49.938965
2023-02-21T09:29:23.568Z,49.737549
2023-02-21T09:30:33.312Z,48.730469
2023-02-21T09:31:41.930Z,48.150635
2023-02-21T09:32:51.535Z,48.931885
2023-02-21T09:34:00.165Z,48.730469
2023-02-21T09:35:08.853Z,48.126221
2023-02-21T09:36:18.537Z,48.022461
2023-02-21T09:37:28.214Z,48.431396
2023-02-21T09:38:37.858Z,48.406982
2023-02-21T09:39:46.512Z,48.101807
2023-02-21T09:40:55.183Z,48.248291
2023-02-21T09:42:04.853Z,48.474121
2023-02-21T09:43:13.505Z,48.956299
2023-02-21T09:44:22.197Z,47.668457
2023-02-21T09:45:31.957Z,48.596191
2023-02-21T09:46:40.556Z,48.394775
2023-02-21T09:47:50.202Z,49.047852
2023-02-21T09:48:58.870Z,49.328613
2023-02-21T09:50:07.516Z,48.950195
2023-02-21T09:51:18.252Z,49.957275
2023-02-21T09:52:25.906Z,49.658203
2023-02-21T09:53:33.569Z,49.926758
2023-02-21T09:54:43.224Z,51.245117
2023-02-21T09:55:52.891Z,50.939941
2023-02-21T09:57:01.562Z,50.738525
2023-02-21T09:58:11.234Z,51.019287
2023-02-21T09:59:20.888Z,50.366211
2023-02-21T10:00:30.578Z,49.206543
2023-02-21T10:01:39.306Z,48.577881
2023-02-21T10:02:46.863Z,47.967529
2023-02-21T10:03:56.530Z,48.822021
2023-02-21T10:05:05.200Z,48.901367
2023-02-21T10:06:13.864Z,48.449707
2023-02-21T10:07:22.595Z,47.802734
2023-02-21T10:08:31.236Z,47.094727
2023-02-21T10:09:40.954Z,46.789551
2023-02-21T10:10:49.605Z,46.130371
2023-02-21T10:11:58.279Z,46.838379
2023-02-21T10:13:07.947Z,46.856689
2023-02-21T10:14:16.604Z,47.363281
2023-02-21T10:15:26.294Z,47.241211
2023-02-21T10:16:35.195Z,47.015381
2023-02-21T10:17:43.780Z,46.386719
2023-02-21T10:18:53.441Z,46.54541
2023-02-21T10:20:01.117Z,45.52002
2023-02-21T10:21:10.749Z,45.391846
2023-02-21T10:22:20.425Z,45.269775
2023-02-21T10:23:30.376Z,44.671631
2023-02-21T10:24:38.712Z,45.031738
2023-02-21T10:25:47.392Z,43.902588
2023-02-21T10:26:57.078Z,42.999268
2023-02-21T10:28:06.773Z,43.481445
2023-02-21T10:29:15.415Z,42.114258
2023-02-21T10:30:24.099Z,43.200684
2023-02-21T10:31:33.854Z,44.952393
2023-02-21T10:32:43.502Z,45.159912
2023-02-21T10:33:52.166Z,45.458984
2023-02-21T10:35:00.830Z,45.239258
2023-02-21T10:36:10.491Z,45.19043
2023-02-21T10:37:21.178Z,44.470215
2023-02-21T10:38:29.825Z,43.963623
2023-02-21T10:39:38.454Z,43.963623
2023-02-21T10:40:48.109Z,44.952393
2023-02-21T10:41:56.851Z,43.42041
2023-02-21T10:43:05.517Z,43.920898
2023-02-21T10:44:14.172Z,43.42041
2023-02-21T10:45:22.813Z,43.218994
2023-02-21T10:46:32.459Z,43.121338
2023-02-21T10:47:40.137Z,43.017578
2023-02-21T10:48:47.812Z,43.341064
2023-02-21T10:49:57.453Z,43.823242
2023-02-21T10:51:07.128Z,43.603516
2023-02-21T10:52:16.899Z,43.200684
2023-02-21T10:53:26.615Z,43.499756
2023-02-21T10:54:36.290Z,43.499756
2023-02-21T10:55:46.990Z,43.377686
2023-02-21T10:56:56.654Z,43.4021
2023-02-21T10:58:05.323Z,43.823242
2023-02-21T10:59:14.993Z,44.122314
2023-02-21T11:00:23.667Z,44.30542
2023-02-21T11:01:32.385Z,43.096924
2023-02-21T11:02:42.172Z,43.603516
2023-02-21T11:03:51.876Z,43.218994
2023-02-21T11:05:00.442Z,43.719482
2023-02-21T11:06:09.114Z,43.4021
2023-02-21T11:07:18.825Z,43.17627
2023-02-21T11:08:28.492Z,42.779541
2023-02-21T11:09:37.184Z,42.474365
2023-02-21T11:10:44.861Z,42.877197
2023-02-21T11:11:54.559Z,42.071533
2023-02-21T11:13:03.277Z,42.297363
2023-02-21T11:14:11.924Z,42.675781
2023-02-21T11:15:20.628Z,43.060303
2023-02-21T11:16:29.302Z,42.352295
2023-02-21T11:17:39.040Z,42.254639
2023-02-21T11:18:46.706Z,42.456055
2023-02-21T11:19:56.389Z,42.5354
2023-02-21T11:21:06.039Z,42.315674
2023-02-21T11:22:14.709Z,41.61377
2023-02-21T11:23:23.432Z,42.034912
2023-02-21T11:24:33.152Z,41.552734
2023-02-21T11:25:41.857Z,41.674805
2023-02-21T11:26:51.580Z,42.474365
2023-02-21T11:28:01.286Z,42.156982
2023-02-21T11:29:09.949Z,42.333984
2023-02-21T11:30:19.682Z,41.333008
2023-02-21T11:31:28.484Z,41.333008
2023-02-21T11:32:38.054Z,41.552734
2023-02-21T11:33:46.712Z,41.650391
2023-02-21T11:34:56.429Z,41.674805
2023-02-21T11:36:05.127Z,42.053223
2023-02-21T11:37:13.766Z,42.211914
2023-02-21T11:38:23.482Z,41.290283
2023-02-21T11:39:33.162Z,40.9729
2023-02-21T11:40:41.814Z,41.351318
2023-02-21T11:41:51.500Z,41.63208
2023-02-21T11:43:00.234Z,41.235352
2023-02-21T11:44:09.931Z,41.210938
2023-02-21T11:45:18.656Z,40.710449
2023-02-21T11:46:28.348Z,40.515137
2023-02-21T11:47:38.043Z,40.472412
2023-02-21T11:48:45.738Z,41.571045
2023-02-21T11:49:54.453Z,41.394043
2023-02-21T11:51:04.109Z,41.711426
2023-02-21T11:52:12.804Z,41.815186
2023-02-21T11:53:22.476Z,41.192627
2023-02-21T11:54:31.140Z,40.95459
2023-02-21T11:55:39.796Z,41.033936
2023-02-21T11:56:49.487Z,40.411377
2023-02-21T11:57:57.174Z,39.996338
2023-02-21T11:59:05.871Z,39.294434
2023-02-21T12:00:15.628Z,39.794922
2023-02-21T12:01:24.275Z,39.691162
2023-02-21T12:02:32.990Z,38.995361
2023-02-21T12:03:40.617Z,38.775635
2023-02-21T12:04:49.344Z,38.995361
2023-02-21T12:05:59.068Z,39.294434
2023-02-21T12:07:06.688Z,39.39209
2023-02-21T12:08:16.414Z,39.691162
2023-02-21T12:09:26.057Z,39.178467
2023-02-21T12:10:34.718Z,39.776611
2023-02-21T12:11:44.545Z,39.874268
2023-02-21T12:12:54.221Z,39.276123
2023-02-21T12:14:03.912Z,38.977051
2023-02-21T12:15:12.583Z,39.672852
2023-02-21T12:16:20.299Z,39.355469
2023-02-21T12:17:28.973Z,38.95874
2023-02-21T12:18:38.721Z,38.641357
2023-02-21T12:19:47.443Z,37.719727
2023-02-21T12:20:56.088Z,38.05542
2023-02-21T12:22:04.747Z,38.458252
2023-02-21T12:23:13.420Z,38.85498
2023-02-21T12:24:23.114Z,38.977051
2023-02-21T12:25:32.750Z,39.178467
2023-02-21T12:26:41.639Z,39.056396
2023-02-21T12:27:52.492Z,39.459229
2023-02-21T12:29:01.173Z,39.135742
2023-02-21T12:30:10.920Z,39.117432
2023-02-21T12:31:19.984Z,38.922119
2023-02-21T12:32:29.260Z,38.922119
2023-02-21T12:33:40.003Z,38.85498
2023-02-21T12:34:47.668Z,39.758301
2023-02-21T12:35:56.420Z,39.813232
2023-02-21T12:37:06.091Z,39.813232
2023-02-21T12:38:14.752Z,39.794922
2023-02-21T12:39:23.454Z,39.294434
2023-02-21T12:40:32.140Z,38.775635
2023-02-21T12:41:40.825Z,39.056396
2023-02-21T12:42:50.545Z,38.342285
2023-02-21T12:43:58.276Z,38.623047
2023-02-21T12:45:05.943Z,37.786865
2023-02-21T12:46:15.703Z,38.287354
2023-02-21T12:47:24.321Z,37.786865
2023-02-21T12:48:34.031Z,37.969971
2023-02-21T12:49:42.729Z,36.987305
2023-02-21T12:50:52.501Z,37.567139
2023-02-21T12:52:02.203Z,37.286377
2023-02-21T12:53:09.872Z,37.683105
2023-02-21T12:54:18.598Z,37.567139
2023-02-21T12:55:28.281Z,36.755371
2023-02-21T12:56:36.972Z,36.639404
2023-02-21T12:57:46.634Z,36.834717
2023-02-21T12:58:55.335Z,36.816406
2023-02-21T13:00:05.125Z,37.231445
2023-02-21T13:01:15.065Z,37.768555
2023-02-21T13:02:24.411Z,38.183594
2023-02-21T13:03:33.123Z,38.201904
2023-02-21T13:04:42.846Z,38.421631
2023-02-21T13:05:51.511Z,38.922119
2023-02-21T13:07:00.191Z,38.641357
2023-02-21T13:08:08.985Z,39.038086
2023-02-21T13:09:17.751Z,38.94043
2023-02-21T13:10:27.402Z,39.135742
2023-02-21T13:11:36.229Z,39.001465